sensor_id;sensor_type;location;lat;lon;timestamp;P1;durP1;ratioP1;P2;durP2;ratioP2
54853;SDS011;40747;49.480;8.658;2022-08-01T00:00:24;1.98;;;1.10;;
54853;SDS011;40747;49.480;8.658;2022-08-01T00:02:50;1.75;;;1.17;;
54853;SDS011;40747;49.480;8.658;2022-08-01T00:05:15;1.27;;;0.98;;
54853;SDS011;40747;49.480;8.658;2022-08-01T00:07:40;2.05;;;1.30;;
54853;SDS011;40747;49.480;8.658;2022-08-01T00:10:07;1.52;;;1.20;;
54853;SDS011;40747;49.480;8.658;2022-08-01T00:12:35;2.35;;;1.50;;
54853;SDS011;40747;49.480;8.658;2022-08-01T00:15:00;1.90;;;1.33;;
54853;SDS011;40747;49.480;8.658;2022-08-01T00:17:26;2.60;;;1.45;;
54853;SDS011;40747;49.480;8.658;2022-08-01T00:19:51;1.85;;;1.20;;
54853;SDS011;40747;49.480;8.658;2022-08-01T00:22:17;1.48;;;1.25;;
54853;SDS011;40747;49.480;8.658;2022-08-01T00:24:42;2.40;;;1.58;;
54853;SDS011;40747;49.480;8.658;2022-08-01T00:27:07;2.72;;;1.27;;
54853;SDS011;40747;49.480;8.658;2022-08-01T00:29:33;2.03;;;1.27;;
54853;SDS011;40747;49.480;8.658;2022-08-01T00:31:58;1.70;;;1.20;;
54853;SDS011;40747;49.480;8.658;2022-08-01T00:34:23;1.50;;;1.30;;
54853;SDS011;40747;49.480;8.658;2022-08-01T00:36:48;2.35;;;1.33;;
54853;SDS011;40747;49.480;8.658;2022-08-01T00:39:14;2.13;;;1.33;;
54853;SDS011;40747;49.480;8.658;2022-08-01T00:41:39;2.80;;;1.65;;
54853;SDS011;40747;49.480;8.658;2022-08-01T00:44:04;1.98;;;1.40;;
54853;SDS011;40747;49.480;8.658;2022-08-01T00:46:30;2.15;;;1.27;;
54853;SDS011;40747;49.480;8.658;2022-08-01T00:48:57;1.42;;;1.10;;
54853;SDS011;40747;49.480;8.658;2022-08-01T00:51:23;2.05;;;1.10;;
54853;SDS011;40747;49.480;8.658;2022-08-01T00:53:49;1.73;;;1.33;;
54853;SDS011;40747;49.480;8.658;2022-08-01T00:56:15;1.90;;;1.33;;
54853;SDS011;40747;49.480;8.658;2022-08-01T00:58:41;1.55;;;1.00;;
54853;SDS011;40747;49.480;8.658;2022-08-01T01:01:07;1.90;;;1.20;;
54853;SDS011;40747;49.480;8.658;2022-08-01T01:03:32;2.08;;;1.25;;
54853;SDS011;40747;49.480;8.658;2022-08-01T01:06:05;1.23;;;1.05;;
54853;SDS011;40747;49.480;8.658;2022-08-01T01:08:51;3.30;;;1.45;;
54853;SDS011;40747;49.480;8.658;2022-08-01T01:13:57;3.38;;;1.30;;
54853;SDS011;40747;49.480;8.658;2022-08-01T01:16:29;5.10;;;1.10;;
54853;SDS011;40747;49.480;8.658;2022-08-01T01:19:00;2.67;;;1.20;;
54853;SDS011;40747;49.480;8.658;2022-08-01T01:21:42;2.20;;;1.20;;
54853;SDS011;40747;49.480;8.658;2022-08-01T01:24:45;1.45;;;1.30;;
54853;SDS011;40747;49.480;8.658;2022-08-01T01:27:18;2.72;;;1.48;;
54853;SDS011;40747;49.480;8.658;2022-08-01T01:29:56;1.65;;;1.05;;
54853;SDS011;40747;49.480;8.658;2022-08-01T01:32:26;1.48;;;1.10;;
54853;SDS011;40747;49.480;8.658;2022-08-01T01:35:09;1.20;;;1.10;;
54853;SDS011;40747;49.480;8.658;2022-08-01T01:37:38;1.77;;;1.30;;
54853;SDS011;40747;49.480;8.658;2022-08-01T01:40:05;2.05;;;1.25;;
54853;SDS011;40747;49.480;8.658;2022-08-01T01:42:34;1.95;;;1.17;;
54853;SDS011;40747;49.480;8.658;2022-08-01T01:45:01;1.80;;;1.30;;
54853;SDS011;40747;49.480;8.658;2022-08-01T01:47:29;1.55;;;1.17;;
54853;SDS011;40747;49.480;8.658;2022-08-01T01:49:57;1.67;;;1.02;;
54853;SDS011;40747;49.480;8.658;2022-08-01T01:52:24;2.55;;;1.20;;
54853;SDS011;40747;49.480;8.658;2022-08-01T01:54:52;2.05;;;1.40;;
54853;SDS011;40747;49.480;8.658;2022-08-01T01:57:19;1.75;;;0.90;;
54853;SDS011;40747;49.480;8.658;2022-08-01T01:59:46;2.28;;;0.93;;
54853;SDS011;40747;49.480;8.658;2022-08-01T02:02:14;2.35;;;1.05;;
54853;SDS011;40747;49.480;8.658;2022-08-01T02:04:41;1.52;;;1.15;;
54853;SDS011;40747;49.480;8.658;2022-08-01T02:07:09;1.50;;;1.15;;
54853;SDS011;40747;49.480;8.658;2022-08-01T02:09:37;3.25;;;1.52;;
54853;SDS011;40747;49.480;8.658;2022-08-01T02:12:06;3.28;;;1.23;;
54853;SDS011;40747;49.480;8.658;2022-08-01T02:14:35;1.20;;;0.88;;
54853;SDS011;40747;49.480;8.658;2022-08-01T02:17:01;3.10;;;0.98;;
54853;SDS011;40747;49.480;8.658;2022-08-01T02:19:28;1.58;;;1.17;;
54853;SDS011;40747;49.480;8.658;2022-08-01T02:21:55;1.58;;;0.95;;
54853;SDS011;40747;49.480;8.658;2022-08-01T02:27:01;1.35;;;0.70;;
54853;SDS011;40747;49.480;8.658;2022-08-01T02:29:38;2.70;;;1.30;;
54853;SDS011;40747;49.480;8.658;2022-08-01T02:32:07;0.73;;;0.73;;
54853;SDS011;40747;49.480;8.658;2022-08-01T02:34:39;2.00;;;1.08;;
54853;SDS011;40747;49.480;8.658;2022-08-01T02:37:06;1.65;;;1.00;;
54853;SDS011;40747;49.480;8.658;2022-08-01T02:39:34;1.85;;;1.00;;
54853;SDS011;40747;49.480;8.658;2022-08-01T02:42:02;0.77;;;0.70;;
54853;SDS011;40747;49.480;8.658;2022-08-01T02:44:31;2.15;;;0.75;;
54853;SDS011;40747;49.480;8.658;2022-08-01T02:47:00;1.73;;;1.02;;
54853;SDS011;40747;49.480;8.658;2022-08-01T02:49:31;0.88;;;0.80;;
54853;SDS011;40747;49.480;8.658;2022-08-01T02:51:58;0.90;;;0.75;;
54853;SDS011;40747;49.480;8.658;2022-08-01T02:54:26;1.75;;;1.13;;
54853;SDS011;40747;49.480;8.658;2022-08-01T02:56:52;2.50;;;1.13;;
54853;SDS011;40747;49.480;8.658;2022-08-01T02:59:21;1.40;;;0.70;;
54853;SDS011;40747;49.480;8.658;2022-08-01T03:01:51;3.53;;;1.00;;
54853;SDS011;40747;49.480;8.658;2022-08-01T03:04:20;2.40;;;1.05;;
54853;SDS011;40747;49.480;8.658;2022-08-01T03:06:47;1.08;;;0.90;;
54853;SDS011;40747;49.480;8.658;2022-08-01T03:09:13;1.23;;;0.90;;
54853;SDS011;40747;49.480;8.658;2022-08-01T03:11:39;2.03;;;1.10;;
54853;SDS011;40747;49.480;8.658;2022-08-01T03:14:08;1.55;;;0.75;;
54853;SDS011;40747;49.480;8.658;2022-08-01T03:16:35;0.70;;;0.70;;
54853;SDS011;40747;49.480;8.658;2022-08-01T03:19:03;0.68;;;0.60;;
54853;SDS011;40747;49.480;8.658;2022-08-01T03:21:30;1.00;;;0.85;;
54853;SDS011;40747;49.480;8.658;2022-08-01T03:23:57;3.78;;;1.23;;
54853;SDS011;40747;49.480;8.658;2022-08-01T03:26:26;1.17;;;0.90;;
54853;SDS011;40747;49.480;8.658;2022-08-01T03:28:55;1.00;;;0.85;;
54853;SDS011;40747;49.480;8.658;2022-08-01T03:31:21;1.75;;;0.80;;
54853;SDS011;40747;49.480;8.658;2022-08-01T03:33:48;2.15;;;0.90;;
54853;SDS011;40747;49.480;8.658;2022-08-01T03:36:14;2.67;;;0.70;;
54853;SDS011;40747;49.480;8.658;2022-08-01T03:38:40;1.90;;;0.85;;
54853;SDS011;40747;49.480;8.658;2022-08-01T03:41:27;1.40;;;0.70;;
54853;SDS011;40747;49.480;8.658;2022-08-01T03:43:58;0.85;;;0.70;;
54853;SDS011;40747;49.480;8.658;2022-08-01T03:46:46;1.13;;;0.70;;
54853;SDS011;40747;49.480;8.658;2022-08-01T03:49:23;1.52;;;0.88;;
54853;SDS011;40747;49.480;8.658;2022-08-01T03:51:57;1.13;;;0.95;;
54853;SDS011;40747;49.480;8.658;2022-08-01T03:54:27;1.00;;;0.77;;
54853;SDS011;40747;49.480;8.658;2022-08-01T03:56:55;2.35;;;0.70;;
54853;SDS011;40747;49.480;8.658;2022-08-01T03:59:23;1.17;;;0.80;;
54853;SDS011;40747;49.480;8.658;2022-08-01T04:01:49;0.80;;;0.60;;
54853;SDS011;40747;49.480;8.658;2022-08-01T04:04:15;1.27;;;0.70;;
54853;SDS011;40747;49.480;8.658;2022-08-01T04:06:40;1.00;;;0.77;;
54853;SDS011;40747;49.480;8.658;2022-08-01T04:09:07;2.25;;;0.80;;
54853;SDS011;40747;49.480;8.658;2022-08-01T04:11:32;1.00;;;0.80;;
54853;SDS011;40747;49.480;8.658;2022-08-01T04:13:58;1.95;;;0.82;;
54853;SDS011;40747;49.480;8.658;2022-08-01T04:16:23;2.47;;;0.75;;
54853;SDS011;40747;49.480;8.658;2022-08-01T04:18:49;3.58;;;0.90;;
54853;SDS011;40747;49.480;8.658;2022-08-01T04:21:14;0.88;;;0.80;;
54853;SDS011;40747;49.480;8.658;2022-08-01T04:23:45;0.75;;;0.65;;
54853;SDS011;40747;49.480;8.658;2022-08-01T04:26:11;0.65;;;0.65;;
54853;SDS011;40747;49.480;8.658;2022-08-01T04:28:39;2.03;;;0.63;;
54853;SDS011;40747;49.480;8.658;2022-08-01T04:31:07;2.97;;;0.90;;
54853;SDS011;40747;49.480;8.658;2022-08-01T04:33:37;0.85;;;0.60;;
54853;SDS011;40747;49.480;8.658;2022-08-01T04:36:05;2.05;;;0.77;;
54853;SDS011;40747;49.480;8.658;2022-08-01T04:38:33;0.73;;;0.60;;
54853;SDS011;40747;49.480;8.658;2022-08-01T04:41:03;1.63;;;0.98;;
54853;SDS011;40747;49.480;8.658;2022-08-01T04:43:31;1.17;;;0.60;;
54853;SDS011;40747;49.480;8.658;2022-08-01T04:45:57;1.27;;;0.77;;
54853;SDS011;40747;49.480;8.658;2022-08-01T04:48:23;1.02;;;0.77;;
54853;SDS011;40747;49.480;8.658;2022-08-01T04:50:49;1.35;;;0.73;;
54853;SDS011;40747;49.480;8.658;2022-08-01T04:53:19;2.00;;;0.90;;
54853;SDS011;40747;49.480;8.658;2022-08-01T04:55:46;1.05;;;0.80;;
54853;SDS011;40747;49.480;8.658;2022-08-01T04:58:12;0.90;;;0.70;;
54853;SDS011;40747;49.480;8.658;2022-08-01T05:00:38;2.13;;;0.98;;
54853;SDS011;40747;49.480;8.658;2022-08-01T05:03:04;1.48;;;0.80;;
54853;SDS011;40747;49.480;8.658;2022-08-01T05:05:29;0.95;;;0.85;;
54853;SDS011;40747;49.480;8.658;2022-08-01T05:07:55;1.60;;;0.82;;
54853;SDS011;40747;49.480;8.658;2022-08-01T05:10:21;0.88;;;0.60;;
54853;SDS011;40747;49.480;8.658;2022-08-01T05:12:46;0.88;;;0.68;;
54853;SDS011;40747;49.480;8.658;2022-08-01T05:15:11;1.60;;;1.17;;
54853;SDS011;40747;49.480;8.658;2022-08-01T05:17:37;1.40;;;0.80;;
54853;SDS011;40747;49.480;8.658;2022-08-01T05:20:02;1.17;;;0.85;;
54853;SDS011;40747;49.480;8.658;2022-08-01T05:22:27;1.30;;;0.80;;
54853;SDS011;40747;49.480;8.658;2022-08-01T05:24:53;2.53;;;0.90;;
54853;SDS011;40747;49.480;8.658;2022-08-01T05:27:18;1.30;;;0.80;;
54853;SDS011;40747;49.480;8.658;2022-08-01T05:29:43;3.53;;;1.00;;
54853;SDS011;40747;49.480;8.658;2022-08-01T05:32:09;0.95;;;0.82;;
54853;SDS011;40747;49.480;8.658;2022-08-01T05:34:34;1.85;;;0.95;;
54853;SDS011;40747;49.480;8.658;2022-08-01T05:37:00;1.25;;;0.90;;
54853;SDS011;40747;49.480;8.658;2022-08-01T05:39:25;3.03;;;1.15;;
54853;SDS011;40747;49.480;8.658;2022-08-01T05:41:50;1.05;;;0.77;;
54853;SDS011;40747;49.480;8.658;2022-08-01T05:44:16;1.50;;;1.00;;
54853;SDS011;40747;49.480;8.658;2022-08-01T05:46:41;1.10;;;0.70;;
54853;SDS011;40747;49.480;8.658;2022-08-01T05:49:06;3.88;;;0.98;;
54853;SDS011;40747;49.480;8.658;2022-08-01T05:51:32;1.55;;;0.80;;
54853;SDS011;40747;49.480;8.658;2022-08-01T05:53:57;2.08;;;0.90;;
54853;SDS011;40747;49.480;8.658;2022-08-01T05:56:23;7.85;;;1.15;;
54853;SDS011;40747;49.480;8.658;2022-08-01T05:58:49;1.48;;;1.00;;
54853;SDS011;40747;49.480;8.658;2022-08-01T06:01:15;2.25;;;1.70;;
54853;SDS011;40747;49.480;8.658;2022-08-01T06:03:41;1.75;;;1.08;;
54853;SDS011;40747;49.480;8.658;2022-08-01T06:06:06;1.60;;;1.20;;
54853;SDS011;40747;49.480;8.658;2022-08-01T06:08:32;1.40;;;1.02;;
54853;SDS011;40747;49.480;8.658;2022-08-01T06:10:57;5.20;;;1.60;;
54853;SDS011;40747;49.480;8.658;2022-08-01T06:13:23;2.72;;;1.00;;
54853;SDS011;40747;49.480;8.658;2022-08-01T06:15:49;2.80;;;1.13;;
54853;SDS011;40747;49.480;8.658;2022-08-01T06:18:15;2.95;;;1.10;;
54853;SDS011;40747;49.480;8.658;2022-08-01T06:20:40;2.25;;;1.10;;
54853;SDS011;40747;49.480;8.658;2022-08-01T06:23:06;2.45;;;1.27;;
54853;SDS011;40747;49.480;8.658;2022-08-01T06:25:31;3.05;;;1.17;;
54853;SDS011;40747;49.480;8.658;2022-08-01T06:27:58;1.95;;;1.40;;
54853;SDS011;40747;49.480;8.658;2022-08-01T06:30:23;2.20;;;1.05;;
54853;SDS011;40747;49.480;8.658;2022-08-01T06:32:49;2.35;;;1.10;;
54853;SDS011;40747;49.480;8.658;2022-08-01T06:35:14;1.65;;;1.30;;
54853;SDS011;40747;49.480;8.658;2022-08-01T06:37:40;1.52;;;1.42;;
54853;SDS011;40747;49.480;8.658;2022-08-01T06:40:06;4.68;;;1.58;;
54853;SDS011;40747;49.480;8.658;2022-08-01T06:42:34;4.03;;;1.27;;
54853;SDS011;40747;49.480;8.658;2022-08-01T06:45:06;1.73;;;1.23;;
54853;SDS011;40747;49.480;8.658;2022-08-01T06:47:36;2.95;;;1.30;;
54853;SDS011;40747;49.480;8.658;2022-08-01T06:50:02;0.98;;;0.90;;
54853;SDS011;40747;49.480;8.658;2022-08-01T06:52:28;2.58;;;1.33;;
54853;SDS011;40747;49.480;8.658;2022-08-01T06:54:54;1.92;;;1.10;;
54853;SDS011;40747;49.480;8.658;2022-08-01T06:57:19;2.22;;;0.77;;
54853;SDS011;40747;49.480;8.658;2022-08-01T06:59:44;0.90;;;0.80;;
54853;SDS011;40747;49.480;8.658;2022-08-01T07:02:10;0.90;;;0.70;;
54853;SDS011;40747;49.480;8.658;2022-08-01T07:04:35;1.15;;;0.88;;
54853;SDS011;40747;49.480;8.658;2022-08-01T07:07:01;1.20;;;0.90;;
54853;SDS011;40747;49.480;8.658;2022-08-01T07:09:26;0.70;;;0.70;;
54853;SDS011;40747;49.480;8.658;2022-08-01T07:11:52;1.00;;;0.77;;
54853;SDS011;40747;49.480;8.658;2022-08-01T07:14:18;3.55;;;0.85;;
54853;SDS011;40747;49.480;8.658;2022-08-01T07:16:45;2.85;;;0.77;;
54853;SDS011;40747;49.480;8.658;2022-08-01T07:19:10;1.88;;;0.70;;
54853;SDS011;40747;49.480;8.658;2022-08-01T07:21:36;3.72;;;0.70;;
54853;SDS011;40747;49.480;8.658;2022-08-01T07:24:01;1.10;;;0.80;;
54853;SDS011;40747;49.480;8.658;2022-08-01T07:26:26;3.05;;;0.70;;
54853;SDS011;40747;49.480;8.658;2022-08-01T07:28:52;3.35;;;0.80;;
54853;SDS011;40747;49.480;8.658;2022-08-01T07:31:18;2.55;;;0.77;;
54853;SDS011;40747;49.480;8.658;2022-08-01T07:33:43;2.67;;;1.25;;
54853;SDS011;40747;49.480;8.658;2022-08-01T07:36:08;1.88;;;0.90;;
54853;SDS011;40747;49.480;8.658;2022-08-01T07:38:34;0.75;;;0.60;;
54853;SDS011;40747;49.480;8.658;2022-08-01T07:40:59;1.13;;;0.80;;
54853;SDS011;40747;49.480;8.658;2022-08-01T07:43:24;1.90;;;1.00;;
54853;SDS011;40747;49.480;8.658;2022-08-01T07:45:49;0.80;;;0.70;;
54853;SDS011;40747;49.480;8.658;2022-08-01T07:48:15;1.10;;;0.85;;
54853;SDS011;40747;49.480;8.658;2022-08-01T07:50:40;0.73;;;0.73;;
54853;SDS011;40747;49.480;8.658;2022-08-01T07:53:05;0.65;;;0.60;;
54853;SDS011;40747;49.480;8.658;2022-08-01T07:55:31;0.93;;;0.60;;
54853;SDS011;40747;49.480;8.658;2022-08-01T07:57:56;2.63;;;0.95;;
54853;SDS011;40747;49.480;8.658;2022-08-01T08:00:21;3.42;;;0.88;;
54853;SDS011;40747;49.480;8.658;2022-08-01T08:02:47;1.10;;;0.88;;
54853;SDS011;40747;49.480;8.658;2022-08-01T08:05:12;2.58;;;1.08;;
54853;SDS011;40747;49.480;8.658;2022-08-01T08:07:38;1.15;;;0.93;;
54853;SDS011;40747;49.480;8.658;2022-08-01T08:10:04;0.88;;;0.88;;
54853;SDS011;40747;49.480;8.658;2022-08-01T08:12:30;3.08;;;0.75;;
54853;SDS011;40747;49.480;8.658;2022-08-01T08:14:56;2.70;;;1.10;;
54853;SDS011;40747;49.480;8.658;2022-08-01T08:17:23;1.60;;;1.10;;
54853;SDS011;40747;49.480;8.658;2022-08-01T08:19:48;1.10;;;0.80;;
54853;SDS011;40747;49.480;8.658;2022-08-01T08:22:13;1.52;;;0.93;;
54853;SDS011;40747;49.480;8.658;2022-08-01T08:24:39;1.88;;;0.95;;
54853;SDS011;40747;49.480;8.658;2022-08-01T08:27:04;0.95;;;0.88;;
54853;SDS011;40747;49.480;8.658;2022-08-01T08:29:30;1.13;;;0.70;;
54853;SDS011;40747;49.480;8.658;2022-08-01T08:31:57;1.25;;;0.80;;
54853;SDS011;40747;49.480;8.658;2022-08-01T08:34:23;2.75;;;0.70;;
54853;SDS011;40747;49.480;8.658;2022-08-01T08:36:49;0.95;;;0.63;;
54853;SDS011;40747;49.480;8.658;2022-08-01T08:39:15;1.33;;;0.50;;
54853;SDS011;40747;49.480;8.658;2022-08-01T08:41:41;1.70;;;0.77;;
54853;SDS011;40747;49.480;8.658;2022-08-01T08:44:07;2.17;;;0.70;;
54853;SDS011;40747;49.480;8.658;2022-08-01T08:46:34;1.00;;;0.90;;
54853;SDS011;40747;49.480;8.658;2022-08-01T08:49:06;2.25;;;0.68;;
54853;SDS011;40747;49.480;8.658;2022-08-01T08:51:32;0.85;;;0.77;;
54853;SDS011;40747;49.480;8.658;2022-08-01T08:53:59;1.45;;;0.77;;
54853;SDS011;40747;49.480;8.658;2022-08-01T08:56:27;1.65;;;0.88;;
54853;SDS011;40747;49.480;8.658;2022-08-01T08:58:55;1.50;;;0.70;;
54853;SDS011;40747;49.480;8.658;2022-08-01T09:01:21;1.02;;;0.82;;
54853;SDS011;40747;49.480;8.658;2022-08-01T09:03:46;2.38;;;0.98;;
54853;SDS011;40747;49.480;8.658;2022-08-01T09:06:12;6.30;;;0.90;;
54853;SDS011;40747;49.480;8.658;2022-08-01T09:08:39;3.20;;;0.93;;
54853;SDS011;40747;49.480;8.658;2022-08-01T09:11:04;3.00;;;0.77;;
54853;SDS011;40747;49.480;8.658;2022-08-01T09:13:30;1.10;;;0.70;;
54853;SDS011;40747;49.480;8.658;2022-08-01T09:15:55;2.55;;;0.45;;
54853;SDS011;40747;49.480;8.658;2022-08-01T09:21:15;1.60;;;0.80;;
54853;SDS011;40747;49.480;8.658;2022-08-01T09:23:43;2.65;;;1.10;;
54853;SDS011;40747;49.480;8.658;2022-08-01T09:26:14;0.73;;;0.73;;
54853;SDS011;40747;49.480;8.658;2022-08-01T09:29:00;0.65;;;0.60;;
54853;SDS011;40747;49.480;8.658;2022-08-01T09:31:38;1.15;;;0.50;;
54853;SDS011;40747;49.480;8.658;2022-08-01T09:34:07;0.60;;;0.50;;
54853;SDS011;40747;49.480;8.658;2022-08-01T09:39:17;1.17;;;0.50;;
54853;SDS011;40747;49.480;8.658;2022-08-01T09:41:45;1.20;;;0.60;;
54853;SDS011;40747;49.480;8.658;2022-08-01T09:44:12;2.10;;;0.75;;
54853;SDS011;40747;49.480;8.658;2022-08-01T09:46:48;2.85;;;0.50;;
54853;SDS011;40747;49.480;8.658;2022-08-01T09:49:27;3.38;;;0.65;;
54853;SDS011;40747;49.480;8.658;2022-08-01T09:51:57;1.25;;;0.95;;
54853;SDS011;40747;49.480;8.658;2022-08-01T09:54:31;0.77;;;0.60;;
54853;SDS011;40747;49.480;8.658;2022-08-01T09:57:08;0.60;;;0.60;;
54853;SDS011;40747;49.480;8.658;2022-08-01T09:59:36;2.30;;;0.70;;
54853;SDS011;40747;49.480;8.658;2022-08-01T10:02:07;0.70;;;0.50;;
54853;SDS011;40747;49.480;8.658;2022-08-01T10:04:45;1.67;;;0.82;;
54853;SDS011;40747;49.480;8.658;2022-08-01T10:07:11;1.30;;;0.60;;
54853;SDS011;40747;49.480;8.658;2022-08-01T10:09:39;0.63;;;0.50;;
54853;SDS011;40747;49.480;8.658;2022-08-01T10:12:04;2.15;;;0.55;;
54853;SDS011;40747;49.480;8.658;2022-08-01T10:14:30;1.60;;;0.60;;
54853;SDS011;40747;49.480;8.658;2022-08-01T10:16:57;1.77;;;0.80;;
54853;SDS011;40747;49.480;8.658;2022-08-01T10:19:24;2.25;;;0.65;;
54853;SDS011;40747;49.480;8.658;2022-08-01T10:21:51;1.27;;;0.52;;
54853;SDS011;40747;49.480;8.658;2022-08-01T10:24:22;0.63;;;0.50;;
54853;SDS011;40747;49.480;8.658;2022-08-01T10:26:49;0.70;;;0.40;;
54853;SDS011;40747;49.480;8.658;2022-08-01T10:29:18;2.97;;;0.55;;
54853;SDS011;40747;49.480;8.658;2022-08-01T10:31:45;1.75;;;0.70;;
54853;SDS011;40747;49.480;8.658;2022-08-01T10:34:11;0.40;;;0.40;;
54853;SDS011;40747;49.480;8.658;2022-08-01T10:36:40;2.60;;;0.70;;
54853;SDS011;40747;49.480;8.658;2022-08-01T10:39:06;0.45;;;0.40;;
54853;SDS011;40747;49.480;8.658;2022-08-01T10:41:35;0.30;;;0.30;;
54853;SDS011;40747;49.480;8.658;2022-08-01T10:44:01;1.10;;;0.50;;
54853;SDS011;40747;49.480;8.658;2022-08-01T10:46:28;0.40;;;0.40;;
54853;SDS011;40747;49.480;8.658;2022-08-01T10:48:57;0.88;;;0.47;;
54853;SDS011;40747;49.480;8.658;2022-08-01T10:51:27;0.98;;;0.63;;
54853;SDS011;40747;49.480;8.658;2022-08-01T10:53:53;2.00;;;0.50;;
54853;SDS011;40747;49.480;8.658;2022-08-01T10:56:19;0.40;;;0.30;;
54853;SDS011;40747;49.480;8.658;2022-08-01T10:59:02;1.15;;;0.40;;
54853;SDS011;40747;49.480;8.658;2022-08-01T11:01:29;1.58;;;0.50;;
54853;SDS011;40747;49.480;8.658;2022-08-01T11:06:26;0.55;;;0.50;;
54853;SDS011;40747;49.480;8.658;2022-08-01T11:11:56;1.92;;;0.60;;
54853;SDS011;40747;49.480;8.658;2022-08-01T11:14:21;0.95;;;0.50;;
54853;SDS011;40747;49.480;8.658;2022-08-01T11:16:46;0.73;;;0.60;;
54853;SDS011;40747;49.480;8.658;2022-08-01T11:19:12;2.40;;;0.57;;
54853;SDS011;40747;49.480;8.658;2022-08-01T11:27:20;1.02;;;0.60;;
54853;SDS011;40747;49.480;8.658;2022-08-01T11:32:33;1.27;;;0.63;;
54853;SDS011;40747;49.480;8.658;2022-08-01T11:35:10;0.98;;;0.60;;
54853;SDS011;40747;49.480;8.658;2022-08-01T11:37:36;0.60;;;0.55;;
54853;SDS011;40747;49.480;8.658;2022-08-01T11:40:13;3.08;;;0.52;;
54853;SDS011;40747;49.480;8.658;2022-08-01T11:42:41;1.98;;;1.15;;
54853;SDS011;40747;49.480;8.658;2022-08-01T11:45:07;3.03;;;0.80;;
54853;SDS011;40747;49.480;8.658;2022-08-01T11:47:46;1.00;;;0.80;;
54853;SDS011;40747;49.480;8.658;2022-08-01T11:50:31;0.85;;;0.73;;
54853;SDS011;40747;49.480;8.658;2022-08-01T11:52:58;2.25;;;0.93;;
54853;SDS011;40747;49.480;8.658;2022-08-01T11:55:25;0.65;;;0.60;;
54853;SDS011;40747;49.480;8.658;2022-08-01T11:57:59;1.05;;;0.60;;
54853;SDS011;40747;49.480;8.658;2022-08-01T12:00:26;1.30;;;0.73;;
54853;SDS011;40747;49.480;8.658;2022-08-01T12:02:59;1.92;;;0.70;;
54853;SDS011;40747;49.480;8.658;2022-08-01T12:05:27;2.70;;;0.77;;
54853;SDS011;40747;49.480;8.658;2022-08-01T12:07:54;1.02;;;0.70;;
54853;SDS011;40747;49.480;8.658;2022-08-01T12:10:22;1.17;;;0.70;;
54853;SDS011;40747;49.480;8.658;2022-08-01T12:12:53;0.70;;;0.60;;
54853;SDS011;40747;49.480;8.658;2022-08-01T12:15:21;0.55;;;0.52;;
54853;SDS011;40747;49.480;8.658;2022-08-01T12:18:09;0.70;;;0.60;;
54853;SDS011;40747;49.480;8.658;2022-08-01T12:20:35;1.20;;;0.70;;
54853;SDS011;40747;49.480;8.658;2022-08-01T12:23:03;1.23;;;0.63;;
54853;SDS011;40747;49.480;8.658;2022-08-01T12:25:32;0.85;;;0.60;;
54853;SDS011;40747;49.480;8.658;2022-08-01T12:27:59;0.90;;;0.70;;
54853;SDS011;40747;49.480;8.658;2022-08-01T12:30:26;1.75;;;0.65;;
54853;SDS011;40747;49.480;8.658;2022-08-01T12:32:52;0.77;;;0.60;;
54853;SDS011;40747;49.480;8.658;2022-08-01T12:35:25;1.00;;;0.57;;
54853;SDS011;40747;49.480;8.658;2022-08-01T12:37:57;1.65;;;0.85;;
54853;SDS011;40747;49.480;8.658;2022-08-01T12:40:26;1.70;;;0.90;;
54853;SDS011;40747;49.480;8.658;2022-08-01T12:42:52;0.60;;;0.60;;
54853;SDS011;40747;49.480;8.658;2022-08-01T12:45:19;1.27;;;0.70;;
54853;SDS011;40747;49.480;8.658;2022-08-01T12:47:47;1.27;;;0.60;;
54853;SDS011;40747;49.480;8.658;2022-08-01T12:50:15;1.80;;;0.88;;
54853;SDS011;40747;49.480;8.658;2022-08-01T12:52:43;1.10;;;0.73;;
54853;SDS011;40747;49.480;8.658;2022-08-01T12:55:11;1.25;;;0.65;;
54853;SDS011;40747;49.480;8.658;2022-08-01T12:57:41;2.28;;;0.77;;
54853;SDS011;40747;49.480;8.658;2022-08-01T13:00:16;3.80;;;0.75;;
54853;SDS011;40747;49.480;8.658;2022-08-01T13:02:47;1.08;;;0.63;;
54853;SDS011;40747;49.480;8.658;2022-08-01T13:05:14;0.50;;;0.50;;
54853;SDS011;40747;49.480;8.658;2022-08-01T13:07:42;1.33;;;0.50;;
54853;SDS011;40747;49.480;8.658;2022-08-01T13:10:10;1.23;;;0.60;;
54853;SDS011;40747;49.480;8.658;2022-08-01T13:12:36;0.52;;;0.52;;
54853;SDS011;40747;49.480;8.658;2022-08-01T13:15:18;0.88;;;0.60;;
54853;SDS011;40747;49.480;8.658;2022-08-01T13:17:46;3.70;;;0.60;;
54853;SDS011;40747;49.480;8.658;2022-08-01T13:20:20;0.73;;;0.60;;
54853;SDS011;40747;49.480;8.658;2022-08-01T13:22:48;1.02;;;0.45;;
54853;SDS011;40747;49.480;8.658;2022-08-01T13:25:15;0.63;;;0.50;;
54853;SDS011;40747;49.480;8.658;2022-08-01T13:27:41;1.20;;;0.70;;
54853;SDS011;40747;49.480;8.658;2022-08-01T13:30:14;0.90;;;0.50;;
54853;SDS011;40747;49.480;8.658;2022-08-01T13:32:43;1.02;;;0.52;;
54853;SDS011;40747;49.480;8.658;2022-08-01T13:35:12;1.33;;;0.60;;
54853;SDS011;40747;49.480;8.658;2022-08-01T13:37:41;0.35;;;0.35;;
54853;SDS011;40747;49.480;8.658;2022-08-01T13:40:07;0.90;;;0.57;;
54853;SDS011;40747;49.480;8.658;2022-08-01T13:42:34;0.70;;;0.50;;
54853;SDS011;40747;49.480;8.658;2022-08-01T13:45:00;0.40;;;0.30;;
54853;SDS011;40747;49.480;8.658;2022-08-01T13:47:26;0.73;;;0.45;;
54853;SDS011;40747;49.480;8.658;2022-08-01T13:49:51;0.70;;;0.50;;
54853;SDS011;40747;49.480;8.658;2022-08-01T13:52:16;0.80;;;0.68;;
54853;SDS011;40747;49.480;8.658;2022-08-01T13:54:42;1.50;;;0.50;;
54853;SDS011;40747;49.480;8.658;2022-08-01T13:57:07;2.63;;;0.68;;
54853;SDS011;40747;49.480;8.658;2022-08-01T13:59:34;1.30;;;0.70;;
54853;SDS011;40747;49.480;8.658;2022-08-01T14:01:59;2.05;;;0.55;;
54853;SDS011;40747;49.480;8.658;2022-08-01T14:04:25;5.20;;;0.60;;
54853;SDS011;40747;49.480;8.658;2022-08-01T14:06:50;0.57;;;0.55;;
54853;SDS011;40747;49.480;8.658;2022-08-01T14:09:16;0.55;;;0.55;;
54853;SDS011;40747;49.480;8.658;2022-08-01T14:11:42;0.70;;;0.50;;
54853;SDS011;40747;49.480;8.658;2022-08-01T14:14:07;0.95;;;0.68;;
54853;SDS011;40747;49.480;8.658;2022-08-01T14:16:33;2.25;;;0.90;;
54853;SDS011;40747;49.480;8.658;2022-08-01T14:18:59;0.63;;;0.60;;
54853;SDS011;40747;49.480;8.658;2022-08-01T14:21:24;2.10;;;0.55;;
54853;SDS011;40747;49.480;8.658;2022-08-01T14:23:50;0.60;;;0.55;;
54853;SDS011;40747;49.480;8.658;2022-08-01T14:26:15;1.40;;;0.73;;
54853;SDS011;40747;49.480;8.658;2022-08-01T14:28:40;0.70;;;0.40;;
54853;SDS011;40747;49.480;8.658;2022-08-01T14:31:06;0.98;;;0.50;;
54853;SDS011;40747;49.480;8.658;2022-08-01T14:33:32;2.00;;;0.73;;
54853;SDS011;40747;49.480;8.658;2022-08-01T14:35:57;0.88;;;0.70;;
54853;SDS011;40747;49.480;8.658;2022-08-01T14:38:23;1.00;;;0.50;;
54853;SDS011;40747;49.480;8.658;2022-08-01T14:40:49;0.50;;;0.50;;
54853;SDS011;40747;49.480;8.658;2022-08-01T14:43:16;2.15;;;0.88;;
54853;SDS011;40747;49.480;8.658;2022-08-01T14:45:42;1.05;;;0.70;;
54853;SDS011;40747;49.480;8.658;2022-08-01T14:48:08;0.57;;;0.40;;
54853;SDS011;40747;49.480;8.658;2022-08-01T14:50:33;2.38;;;0.70;;
54853;SDS011;40747;49.480;8.658;2022-08-01T14:52:58;1.25;;;0.45;;
54853;SDS011;40747;49.480;8.658;2022-08-01T14:55:23;2.17;;;0.80;;
54853;SDS011;40747;49.480;8.658;2022-08-01T14:57:51;0.80;;;0.80;;
54853;SDS011;40747;49.480;8.658;2022-08-01T15:00:16;1.42;;;0.43;;
54853;SDS011;40747;49.480;8.658;2022-08-01T15:02:42;1.02;;;0.57;;
54853;SDS011;40747;49.480;8.658;2022-08-01T15:05:08;0.82;;;0.40;;
54853;SDS011;40747;49.480;8.658;2022-08-01T15:07:34;0.75;;;0.47;;
54853;SDS011;40747;49.480;8.658;2022-08-01T15:10:00;0.88;;;0.55;;
54853;SDS011;40747;49.480;8.658;2022-08-01T15:12:26;2.45;;;0.70;;
54853;SDS011;40747;49.480;8.658;2022-08-01T15:14:51;0.63;;;0.60;;